Time;durP1;ratioP1;P1;durP2;ratioP2;P2;SDS_P1;SDS_P2;PMS_P1;PMS_P2;Temp;Humidity;BMP_temperature;BMP_pressure;BME280_temperature;BME280_humidity;BME280_pressure;Samples;Min_cycle;Max_cycle;Signal;HPM_P1;HPM_P2
2024/02/21 00:00:21;;;;;;;3.23;2.40;;;9.90;99.90;;;;;;5013943;28;20449;-45
2024/02/21 00:02:51;;;;;;;3.70;2.63;;;10.00;99.90;;;;;;5007515;28;20472;-45
2024/02/21 00:05:24;;;;;;;4.53;2.97;;;9.90;99.90;;;;;;5012081;28;20454;-46
2024/02/21 00:07:52;;;;;;;5.60;3.63;;;9.90;99.90;;;;;;5012340;28;20448;-46
2024/02/21 00:10:24;;;;;;;7.27;2.40;;;9.90;99.90;;;;;;5013938;28;20459;-46
2024/02/21 00:12:55;;;;;;;5.93;3.43;;;9.90;99.90;;;;;;5005855;28;20823;-45
2024/02/21 00:15:26;;;;;;;5.90;3.90;;;9.90;99.90;;;;;;5013675;28;20567;-45
2024/02/21 00:17:55;;;;;;;7.47;2.50;;;9.90;99.90;;;;;;5005825;28;20520;-45
2024/02/21 00:20:28;;;;;;;4.57;2.63;;;9.90;99.90;;;;;;5013438;28;20851;-45
2024/02/21 00:22:56;;;;;;;7.27;3.20;;;9.90;99.90;;;;;;5013529;28;20439;-45
2024/02/21 00:25:25;;;;;;;5.67;2.93;;;9.90;99.90;;;;;;5013028;28;20480;-46
2024/02/21 00:27:56;;;;;;;3.27;2.47;;;9.90;99.90;;;;;;5010233;28;20438;-44
2024/02/21 00:30:24;;;;;;;4.87;3.10;;;9.90;99.90;;;;;;5015356;28;20440;-44
2024/02/21 00:32:55;;;;;;;5.67;3.43;;;9.90;99.90;;;;;;5006476;28;20450;-45
2024/02/21 00:35:27;;;;;;;4.87;3.30;;;9.90;99.90;;;;;;5014057;28;20827;-45
2024/02/21 00:37:57;;;;;;;5.33;3.90;;;9.90;99.90;;;;;;5011276;28;20448;-46
2024/02/21 00:40:25;;;;;;;5.00;2.60;;;9.90;99.90;;;;;;5014932;28;20436;-45
2024/02/21 00:42:53;;;;;;;4.07;3.20;;;9.90;99.90;;;;;;5012072;28;20519;-44
2024/02/21 00:45:23;;;;;;;5.70;2.80;;;9.90;99.90;;;;;;5012078;28;21020;-45
2024/02/21 00:47:53;;;;;;;6.20;3.10;;;9.90;99.90;;;;;;5010099;28;20464;-45
2024/02/21 00:50:28;;;;;;;6.17;3.73;;;9.90;99.90;;;;;;5015344;28;20436;-45
2024/02/21 00:52:56;;;;;;;4.00;3.03;;;9.90;99.90;;;;;;5013606;28;20438;-45
2024/02/21 00:55:26;;;;;;;4.23;3.00;;;9.90;99.90;;;;;;5014897;28;20459;-44
2024/02/21 00:57:56;;;;;;;5.27;3.50;;;9.90;99.90;;;;;;5007098;28;20450;-45
2024/02/21 01:00:26;;;;;;;3.67;2.30;;;9.90;99.90;;;;;;5012983;28;20451;-45
2024/02/21 01:02:56;;;;;;;4.90;2.63;;;9.90;99.90;;;;;;5007735;28;20778;-44
2024/02/21 01:05:29;;;;;;;4.57;2.87;;;9.90;99.90;;;;;;5013643;28;20472;-45
2024/02/21 01:07:57;;;;;;;5.17;3.20;;;9.90;99.90;;;;;;5011767;28;20819;-46
2024/02/21 01:10:26;;;;;;;8.80;3.43;;;9.90;99.90;;;;;;5008302;28;20879;-45
2024/02/21 01:12:56;;;;;;;4.30;3.23;;;9.90;99.90;;;;;;5011039;28;20807;-45
2024/02/21 01:15:25;;;;;;;7.27;3.17;;;9.90;99.90;;;;;;5011523;28;20456;-45
2024/02/21 01:17:54;;;;;;;7.87;4.23;;;9.90;99.90;;;;;;5009297;28;20846;-45
2024/02/21 01:20:25;;;;;;;5.50;3.47;;;9.90;99.90;;;;;;5012369;28;20473;-45
2024/02/21 01:22:54;;;;;;;4.60;3.10;;;9.90;99.90;;;;;;5009748;28;20931;-45
2024/02/21 01:25:24;;;;;;;5.10;3.40;;;9.90;99.90;;;;;;5014254;28;20495;-45
2024/02/21 01:27:55;;;;;;;6.70;2.97;;;9.90;99.90;;;;;;5009113;28;20438;-45
2024/02/21 01:30:23;;;;;;;5.03;3.17;;;9.90;99.90;;;;;;5014713;28;20806;-45
2024/02/21 01:32:52;;;;;;;7.97;3.13;;;9.90;99.90;;;;;;5004477;28;20508;-44
2024/02/21 01:35:24;;;;;;;5.80;3.50;;;9.90;99.90;;;;;;5013547;28;20449;-45
2024/02/21 01:37:56;;;;;;;6.10;3.40;;;9.90;99.90;;;;;;5012856;28;20441;-45
2024/02/21 01:40:25;;;;;;;6.70;3.40;;;9.90;99.90;;;;;;5014409;28;20445;-44
2024/02/21 01:42:56;;;;;;;11.70;4.13;;;9.90;99.90;;;;;;5004969;28;20437;-45
2024/02/21 01:45:26;;;;;;;5.53;2.87;;;9.90;99.90;;;;;;5012650;28;20489;-44
2024/02/21 01:47:55;;;;;;;3.47;2.67;;;9.90;99.90;;;;;;5006537;28;20453;-45
2024/02/21 01:50:26;;;;;;;4.00;3.03;;;9.90;99.90;;;;;;5014269;28;20947;-45
2024/02/21 01:52:56;;;;;;;4.17;2.60;;;9.90;99.90;;;;;;5012862;28;20438;-46
2024/02/21 01:55:26;;;;;;;6.53;3.80;;;9.90;99.90;;;;;;5009514;28;20456;-45
2024/02/21 01:57:57;;;;;;;3.10;2.50;;;9.80;99.90;;;;;;5012879;28;20430;-44
2024/02/21 02:00:27;;;;;;;7.10;4.30;;;9.90;99.90;;;;;;5013567;28;20445;-45
2024/02/21 02:02:57;;;;;;;7.97;3.97;;;9.90;99.90;;;;;;5006566;28;20520;-45
2024/02/21 02:05:27;;;;;;;5.50;3.00;;;9.90;99.90;;;;;;5012955;28;20478;-45
2024/02/21 02:07:58;;;;;;;4.10;3.20;;;9.80;99.90;;;;;;5012406;28;20819;-45
2024/02/21 02:10:26;;;;;;;4.53;3.70;;;9.90;99.90;;;;;;5013813;28;20451;-45
2024/02/21 02:12:55;;;;;;;4.70;3.40;;;9.90;99.90;;;;;;5009591;28;20442;-44
2024/02/21 02:15:25;;;;;;;5.67;2.87;;;9.90;99.90;;;;;;5012101;28;20463;-44
2024/02/21 02:17:56;;;;;;;5.33;3.40;;;9.90;99.90;;;;;;5006164;28;20821;-44
2024/02/21 02:20:26;;;;;;;4.93;3.27;;;9.80;99.90;;;;;;5011371;28;20479;-45
2024/02/21 02:22:55;;;;;;;5.10;2.97;;;9.90;99.90;;;;;;5011315;28;20787;-46
2024/02/21 02:25:27;;;;;;;5.57;3.23;;;9.80;99.90;;;;;;5013927;28;20471;-45
2024/02/21 02:27:56;;;;;;;4.07;2.80;;;9.80;99.90;;;;;;5008869;28;20500;-45
2024/02/21 02:30:26;;;;;;;3.27;2.63;;;9.90;99.90;;;;;;5013953;28;20810;-45
2024/02/21 02:32:54;;;;;;;7.93;3.57;;;9.80;99.90;;;;;;5005341;28;20542;-46
2024/02/21 02:35:23;;;;;;;4.67;3.20;;;9.80;99.90;;;;;;5013252;28;20452;-46
2024/02/21 02:37:54;;;;;;;4.90;3.43;;;9.80;99.90;;;;;;5011994;28;20946;-45
2024/02/21 02:40:26;;;;;;;5.60;3.00;;;9.90;99.90;;;;;;5010654;28;20448;-46
2024/02/21 02:42:56;;;;;;;7.13;3.00;;;9.80;99.90;;;;;;5009995;28;20434;-46
2024/02/21 02:45:26;;;;;;;8.23;3.43;;;9.80;99.90;;;;;;5026440;28;20517;-45
2024/02/21 02:47:56;;;;;;;5.30;2.50;;;9.80;99.90;;;;;;5005698;28;20964;-45
2024/02/21 02:50:27;;;;;;;5.20;3.00;;;9.80;99.90;;;;;;5014192;28;20456;-45
2024/02/21 02:52:56;;;;;;;4.50;2.53;;;9.80;99.90;;;;;;5013097;28;20480;-46
2024/02/21 02:55:28;;;;;;;5.83;3.00;;;9.80;99.90;;;;;;5012744;28;20534;-45
2024/02/21 02:57:57;;;;;;;4.50;2.80;;;9.80;99.90;;;;;;5006475;28;20445;-45
2024/02/21 03:00:25;;;;;;;9.30;3.07;;;9.80;99.90;;;;;;5009520;28;20473;-45
2024/02/21 03:02:55;;;;;;;4.33;2.40;;;9.80;99.90;;;;;;5011906;28;20456;-45
2024/02/21 03:05:24;;;;;;;4.70;2.80;;;9.80;99.90;;;;;;5013826;28;20486;-45
2024/02/21 03:07:56;;;;;;;5.23;3.30;;;9.80;99.90;;;;;;5007248;28;20808;-45
2024/02/21 03:10:24;;;;;;;6.43;2.80;;;9.80;99.90;;;;;;5010992;28;20434;-46
2024/02/21 03:12:56;;;;;;;4.37;3.07;;;9.80;99.90;;;;;;5014020;28;20435;-45
2024/02/21 03:15:26;;;;;;;5.70;3.10;;;9.80;99.90;;;;;;5017296;28;20539;-45
2024/02/21 03:17:56;;;;;;;2.97;2.53;;;9.80;99.90;;;;;;5009621;28;20813;-44
2024/02/21 03:20:24;;;;;;;4.33;2.70;;;9.80;99.90;;;;;;5016890;28;20439;-45
2024/02/21 03:22:52;;;;;;;5.53;3.10;;;9.80;99.90;;;;;;5015886;28;20448;-46
2024/02/21 03:25:21;;;;;;;4.73;2.97;;;9.80;99.90;;;;;;5014659;28;20574;-44
2024/02/21 03:27:50;;;;;;;5.70;2.97;;;9.80;99.90;;;;;;5013115;28;20492;-45
2024/02/21 03:30:20;;;;;;;3.73;2.60;;;9.80;99.90;;;;;;5017779;28;20457;-45
2024/02/21 03:32:49;;;;;;;3.70;2.47;;;9.80;99.90;;;;;;5014261;28;20445;-45
2024/02/21 03:35:17;;;;;;;3.40;2.27;;;9.80;99.90;;;;;;5042313;28;20454;-45
2024/02/21 03:37:46;;;;;;;3.77;3.07;;;9.80;99.90;;;;;;5036146;28;20865;-45
2024/02/21 03:40:16;;;;;;;5.20;2.10;;;9.80;99.90;;;;;;5014658;28;20511;-45
2024/02/21 03:42:44;;;;;;;4.70;2.70;;;9.80;99.90;;;;;;5014035;28;20430;-46
2024/02/21 03:45:14;;;;;;;3.97;2.40;;;9.80;99.90;;;;;;5015237;28;20473;-45
2024/02/21 03:47:43;;;;;;;5.20;3.13;;;9.80;99.90;;;;;;5011762;28;20453;-45
2024/02/21 03:50:11;;;;;;;5.97;3.07;;;9.80;99.90;;;;;;5010680;28;20536;-45
2024/02/21 03:52:41;;;;;;;5.20;2.87;;;9.80;99.90;;;;;;5010773;28;20433;-45
2024/02/21 03:55:11;;;;;;;3.80;2.13;;;9.80;99.90;;;;;;5016844;28;20464;-45
2024/02/21 03:57:40;;;;;;;3.67;2.33;;;9.80;99.90;;;;;;5097241;22;20494;-44
2024/02/21 04:00:12;;;;;;;3.90;2.40;;;9.80;99.90;;;;;;5030984;28;20561;-44
2024/02/21 04:02:40;;;;;;;4.33;2.60;;;9.80;99.90;;;;;;5031143;28;20548;-44
2024/02/21 04:05:16;;;;;;;4.13;2.90;;;9.80;99.90;;;;;;5028663;28;20552;-45
2024/02/21 04:07:46;;;;;;;5.57;3.67;;;9.80;99.90;;;;;;5027892;28;20432;-46
2024/02/21 04:10:15;;;;;;;5.37;3.20;;;9.80;99.90;;;;;;5028292;28;20489;-46
2024/02/21 04:12:46;;;;;;;3.80;2.60;;;9.80;99.90;;;;;;5031219;28;20437;-46
2024/02/21 04:15:15;;;;;;;3.80;2.43;;;9.80;99.90;;;;;;5027553;28;20508;-46
2024/02/21 04:17:44;;;;;;;4.53;2.30;;;9.80;99.90;;;;;;5022356;28;20959;-46
2024/02/21 04:20:16;;;;;;;4.43;2.93;;;9.80;99.90;;;;;;5029820;28;20498;-46
2024/02/21 04:22:45;;;;;;;3.30;2.70;;;9.80;99.90;;;;;;5026882;28;20432;-45
2024/02/21 04:25:17;;;;;;;3.03;2.30;;;9.80;99.90;;;;;;5051360;28;20813;-46
2024/02/21 04:27:46;;;;;;;4.00;3.03;;;9.80;99.90;;;;;;5046384;28;20468;-44
2024/02/21 04:30:15;;;;;;;3.70;2.57;;;9.80;99.90;;;;;;5049657;28;20475;-46
2024/02/21 04:32:46;;;;;;;3.10;2.70;;;9.80;99.90;;;;;;5048604;28;20495;-45
2024/02/21 04:35:17;;;;;;;3.53;2.17;;;9.80;99.90;;;;;;5047044;28;20823;-47
2024/02/21 04:37:47;;;;;;;3.43;2.70;;;9.80;99.90;;;;;;5052581;28;20865;-46
2024/02/21 04:40:17;;;;;;;5.80;2.43;;;9.80;99.90;;;;;;5050862;28;20486;-46
2024/02/21 04:42:45;;;;;;;4.53;1.97;;;9.80;99.90;;;;;;5052146;28;20513;-45
2024/02/21 04:45:15;;;;;;;9.83;3.23;;;9.80;99.90;;;;;;5047641;28;20475;-46
2024/02/21 04:47:44;;;;;;;4.37;2.97;;;9.80;99.90;;;;;;5047942;28;20442;-46
2024/02/21 04:50:12;;;;;;;3.50;2.10;;;9.80;99.90;;;;;;5051255;28;20462;-45
2024/02/21 04:52:43;;;;;;;2.97;2.13;;;9.80;99.90;;;;;;5049674;28;20481;-45
2024/02/21 04:55:11;;;;;;;4.20;2.27;;;9.80;99.90;;;;;;5051425;28;20465;-46
2024/02/21 04:57:40;;;;;;;4.47;2.47;;;9.80;99.90;;;;;;5050967;28;20452;-45
2024/02/21 05:00:12;;;;;;;6.90;2.77;;;9.80;99.90;;;;;;5051765;28;20833;-45
2024/02/21 05:02:41;;;;;;;4.70;2.63;;;9.80;99.90;;;;;;5050397;28;20471;-46
2024/02/21 05:05:11;;;;;;;5.67;3.27;;;9.80;99.90;;;;;;5051061;28;20494;-45
2024/02/21 05:07:43;;;;;;;5.77;3.30;;;9.80;99.90;;;;;;5051803;28;20459;-44
2024/02/21 05:10:11;;;;;;;2.77;2.37;;;9.80;99.90;;;;;;5051004;28;20459;-46
2024/02/21 05:12:40;;;;;;;2.63;2.03;;;9.80;99.90;;;;;;5050447;28;20957;-47
2024/02/21 05:15:11;;;;;;;3.50;2.23;;;9.80;99.90;;;;;;5049847;28;20459;-45
2024/02/21 05:17:42;;;;;;;4.40;2.90;;;9.70;99.90;;;;;;5041808;28;20977;-46
2024/02/21 05:20:12;;;;;;;2.93;1.80;;;9.80;99.90;;;;;;5047840;28;20536;-45
2024/02/21 05:22:42;;;;;;;2.53;1.90;;;9.70;99.90;;;;;;5047522;28;20456;-46
2024/02/21 05:25:11;;;;;;;4.20;2.53;;;9.80;99.90;;;;;;5051723;28;20939;-45
2024/02/21 05:27:41;;;;;;;4.23;2.50;;;9.70;99.90;;;;;;5045822;28;20529;-45
2024/02/21 05:30:11;;;;;;;2.40;2.03;;;9.70;99.90;;;;;;5048104;28;20479;-45
2024/02/21 05:32:39;;;;;;;4.40;3.33;;;9.70;99.90;;;;;;5046970;28;20909;-45
2024/02/21 05:35:09;;;;;;;5.70;2.43;;;9.70;99.90;;;;;;5050844;28;20471;-46
2024/02/21 05:37:37;;;;;;;4.43;1.90;;;9.70;99.90;;;;;;5044962;28;20434;-46
2024/02/21 05:40:10;;;;;;;5.13;2.23;;;9.80;99.90;;;;;;5050659;28;20462;-46
2024/02/21 05:42:40;;;;;;;2.57;1.70;;;9.70;99.90;;;;;;5051178;28;20984;-45
2024/02/21 05:45:10;;;;;;;3.33;2.57;;;9.70;99.90;;;;;;5048328;28;20775;-45
2024/02/21 05:47:39;;;;;;;3.97;2.20;;;9.70;99.90;;;;;;5041484;28;21006;-45
2024/02/21 05:50:08;;;;;;;3.13;2.30;;;9.70;99.90;;;;;;5048249;28;20447;-45
2024/02/21 05:52:36;;;;;;;3.30;2.30;;;9.70;99.90;;;;;;5048067;28;20823;-44
2024/02/21 05:55:09;;;;;;;4.10;2.03;;;9.70;99.90;;;;;;5050390;28;20558;-46
2024/02/21 05:57:40;;;;;;;4.80;2.27;;;9.70;99.90;;;;;;5050262;28;20449;-45
2024/02/21 06:00:11;;;;;;;3.33;2.10;;;9.70;99.90;;;;;;5050397;28;20460;-44
2024/02/21 06:02:42;;;;;;;4.73;2.00;;;9.70;99.90;;;;;;5043148;28;20939;-45
2024/02/21 06:05:11;;;;;;;5.10;3.10;;;9.70;99.90;;;;;;5047074;28;20467;-45
2024/02/21 06:07:41;;;;;;;5.20;2.50;;;9.70;99.90;;;;;;5050282;28;20956;-46
2024/02/21 06:10:13;;;;;;;4.20;2.40;;;9.70;99.90;;;;;;5049327;28;20468;-44
2024/02/21 06:12:41;;;;;;;4.27;2.93;;;9.80;99.90;;;;;;5050951;28;20445;-44
2024/02/21 06:15:10;;;;;;;3.73;2.00;;;9.70;99.90;;;;;;5049716;28;20987;-45
2024/02/21 06:17:38;;;;;;;9.63;2.77;;;9.70;99.90;;;;;;5044318;28;20455;-45
2024/02/21 06:20:08;;;;;;;3.37;1.80;;;9.70;99.90;;;;;;5051693;28;20883;-45
2024/02/21 06:22:36;;;;;;;3.10;1.97;;;9.70;99.90;;;;;;5043088;28;20485;-45
2024/02/21 06:25:06;;;;;;;4.30;2.37;;;9.70;99.90;;;;;;5050334;28;20836;-45
2024/02/21 06:27:36;;;;;;;5.63;2.80;;;9.70;99.90;;;;;;5047840;28;20483;-45
2024/02/21 06:30:07;;;;;;;6.03;2.57;;;9.70;99.90;;;;;;5047348;28;20461;-45
2024/02/21 06:32:36;;;;;;;4.90;2.83;;;9.70;99.90;;;;;;5048876;28;20954;-45
2024/02/21 06:35:06;;;;;;;7.13;2.67;;;9.70;99.90;;;;;;5049989;28;20863;-45
2024/02/21 06:37:38;;;;;;;4.70;2.33;;;9.70;99.90;;;;;;5050566;28;20429;-46
2024/02/21 06:40:08;;;;;;;3.20;2.07;;;9.70;99.90;;;;;;5050301;28;20467;-46
2024/02/21 06:42:38;;;;;;;5.50;2.60;;;9.70;99.90;;;;;;5047088;28;20940;-45
2024/02/21 06:45:07;;;;;;;3.37;1.60;;;9.70;99.90;;;;;;5051444;28;20487;-45
2024/02/21 06:47:36;;;;;;;3.70;1.87;;;9.70;99.90;;;;;;5045983;28;20467;-46
2024/02/21 06:50:07;;;;;;;3.30;2.70;;;9.70;99.90;;;;;;5046035;28;20887;-45
2024/02/21 06:52:35;;;;;;;3.20;2.00;;;9.70;99.90;;;;;;5055268;28;20424;-45
2024/02/21 06:55:04;;;;;;;4.07;2.10;;;9.70;99.90;;;;;;5049835;28;20869;-45
2024/02/21 06:57:33;;;;;;;5.10;2.67;;;9.70;99.90;;;;;;5046571;28;20442;-45
2024/02/21 07:00:07;;;;;;;4.63;2.13;;;9.70;99.90;;;;;;5052451;28;20509;-45
2024/02/21 07:02:36;;;;;;;4.13;1.73;;;9.70;99.90;;;;;;5051446;28;21260;-45
2024/02/21 07:05:07;;;;;;;4.10;2.17;;;9.70;99.90;;;;;;5051195;28;20478;-45
2024/02/21 07:07:36;;;;;;;9.30;3.03;;;9.70;99.90;;;;;;5050541;28;20507;-45
2024/02/21 07:10:07;;;;;;;3.37;1.70;;;9.70;99.90;;;;;;5052295;28;20543;-45
2024/02/21 07:12:38;;;;;;;7.77;2.40;;;9.70;99.90;;;;;;5052785;28;20464;-44
2024/02/21 07:15:08;;;;;;;3.20;2.10;;;9.70;99.90;;;;;;5046182;28;20468;-45
2024/02/21 07:17:36;;;;;;;3.40;2.33;;;9.70;99.90;;;;;;5050838;28;20508;-46
2024/02/21 07:20:07;;;;;;;3.90;1.80;;;9.70;99.90;;;;;;5046308;28;20816;-45
2024/02/21 07:22:37;;;;;;;7.50;2.57;;;9.70;99.90;;;;;;5054895;28;20856;-45
2024/02/21 07:25:07;;;;;;;3.03;2.17;;;9.70;99.90;;;;;;5047641;28;20477;-45
2024/02/21 07:27:38;;;;;;;3.07;2.23;;;9.70;99.90;;;;;;5054155;28;20475;-46
2024/02/21 07:30:09;;;;;;;3.60;2.33;;;9.70;99.90;;;;;;5048013;28;20489;-46
2024/02/21 07:32:41;;;;;;;3.20;2.40;;;9.70;99.90;;;;;;5051148;28;20860;-45
2024/02/21 07:35:12;;;;;;;2.83;1.83;;;9.70;99.90;;;;;;5049967;28;20456;-46
2024/02/21 07:37:41;;;;;;;3.13;2.33;;;9.70;99.90;;;;;;5053325;28;20435;-45
2024/02/21 07:40:14;;;;;;;3.87;2.23;;;9.70;99.90;;;;;;5052645;28;20465;-45
2024/02/21 07:42:44;;;;;;;5.10;2.03;;;9.70;99.90;;;;;;5048913;28;20815;-45
2024/02/21 07:45:23;;;;;;;3.70;2.00;;;9.70;99.90;;;;;;5052378;28;20980;-46
2024/02/21 07:47:55;;;;;;;4.90;2.60;;;9.70;99.90;;;;;;5048058;28;20808;-44
2024/02/21 07:50:23;;;;;;;2.63;1.87;;;9.70;99.90;;;;;;5054474;28;20444;-45
2024/02/21 07:52:55;;;;;;;4.27;2.40;;;9.70;99.90;;;;;;5031510;28;20445;-44
2024/02/21 07:55:24;;;;;;;4.70;1.90;;;9.70;99.90;;;;;;5053242;28;20572;-45
2024/02/21 07:57:52;;;;;;;2.20;1.60;;;9.70;99.90;;;;;;5049388;28;20519;-45
2024/02/21 08:00:25;;;;;;;3.53;1.97;;;9.70;99.90;;;;;;5052508;28;20453;-45
2024/02/21 08:02:56;;;;;;;4.00;1.80;;;9.70;99.90;;;;;;5047283;28;20506;-44
2024/02/21 08:05:26;;;;;;;2.90;2.00;;;9.70;99.90;;;;;;5056084;28;20488;-44
2024/02/21 08:07:56;;;;;;;2.10;1.80;;;9.70;99.90;;;;;;5052315;28;20463;-45
2024/02/21 08:10:25;;;;;;;3.00;1.93;;;9.70;99.90;;;;;;5054273;28;20450;-44
2024/02/21 08:12:56;;;;;;;2.30;2.10;;;9.70;99.90;;;;;;5052233;28;20443;-44
2024/02/21 08:15:29;;;;;;;2.97;2.10;;;9.70;99.90;;;;;;5047771;28;21114;-44
2024/02/21 08:18:01;;;;;;;2.27;1.57;;;9.60;99.90;;;;;;5037214;28;20507;-44
2024/02/21 08:20:32;;;;;;;2.27;1.87;;;9.70;99.90;;;;;;5046740;28;20556;-44
2024/02/21 08:23:02;;;;;;;1.87;1.40;;;9.70;99.90;;;;;;5052951;28;20944;-44
2024/02/21 08:25:32;;;;;;;2.80;1.60;;;9.70;99.90;;;;;;5052013;28;20497;-44
2024/02/21 08:28:02;;;;;;;2.57;1.70;;;9.70;99.90;;;;;;5043924;28;20916;-44
2024/02/21 08:30:32;;;;;;;2.87;1.60;;;9.70;99.90;;;;;;5030845;28;20432;-44
2024/02/21 08:33:03;;;;;;;3.88;2.40;;;9.70;99.90;;;;;;5031914;28;20450;-46
2024/02/21 08:35:32;;;;;;;3.43;1.87;;;9.70;99.90;;;;;;5030897;28;20217;-45
2024/02/21 08:38:01;;;;;;;5.23;2.30;;;9.70;99.90;;;;;;5030913;28;20922;-46
2024/02/21 08:40:34;;;;;;;4.80;2.20;;;9.70;99.90;;;;;;5069738;28;20451;-46
2024/02/21 08:43:07;;;;;;;4.30;2.40;;;9.70;99.90;;;;;;5067528;28;21204;-46
2024/02/21 08:45:42;;;;;;;3.37;2.00;;;9.70;99.90;;;;;;5077645;28;20965;-46
2024/02/21 08:48:10;;;;;;;3.03;2.13;;;9.70;99.90;;;;;;5064785;28;20984;-48
2024/02/21 08:50:38;;;;;;;3.50;1.80;;;9.70;99.90;;;;;;5077029;28;20954;-46
2024/02/21 08:53:08;;;;;;;2.90;1.83;;;9.70;99.90;;;;;;5074557;28;20450;-46
2024/02/21 08:55:38;;;;;;;2.83;1.70;;;9.70;99.90;;;;;;5071925;28;20489;-45
2024/02/21 08:58:07;;;;;;;4.33;2.30;;;9.70;99.90;;;;;;5055386;28;20427;-46
2024/02/21 09:00:36;;;;;;;2.33;1.70;;;9.70;99.90;;;;;;5075098;28;20433;-44
2024/02/21 09:03:06;;;;;;;2.43;1.63;;;9.70;99.90;;;;;;5071292;28;20451;-45
2024/02/21 09:05:36;;;;;;;2.40;1.83;;;9.70;99.90;;;;;;5071745;28;20437;-44
2024/02/21 09:08:06;;;;;;;3.73;2.20;;;9.70;99.90;;;;;;5074152;28;20511;-46
2024/02/21 09:10:37;;;;;;;5.37;2.30;;;9.70;99.90;;;;;;5072448;28;20489;-45
2024/02/21 09:13:07;;;;;;;2.43;1.77;;;9.70;99.90;;;;;;5068591;28;20465;-46
2024/02/21 09:15:36;;;;;;;3.33;1.90;;;9.70;99.90;;;;;;5074552;28;20856;-45
2024/02/21 09:18:08;;;;;;;2.03;1.50;;;9.70;99.90;;;;;;5064688;28;20941;-46
2024/02/21 09:20:36;;;;;;;3.23;2.03;;;9.70;99.90;;;;;;5074710;28;20442;-45
2024/02/21 09:23:06;;;;;;;2.43;1.70;;;9.70;99.90;;;;;;5064358;28;20445;-45
2024/02/21 09:25:34;;;;;;;6.07;1.90;;;9.70;99.90;;;;;;5076769;28;20474;-45
2024/02/21 09:28:03;;;;;;;2.40;1.73;;;9.70;99.90;;;;;;5071292;28;20437;-46
2024/02/21 09:30:32;;;;;;;4.10;2.73;;;9.70;99.90;;;;;;5074239;28;20453;-46
2024/02/21 09:33:02;;;;;;;3.00;1.97;;;9.70;99.90;;;;;;5055662;28;20544;-46
2024/02/21 09:35:34;;;;;;;2.30;1.50;;;9.70;99.90;;;;;;5074061;28;20456;-46
2024/02/21 09:38:02;;;;;;;3.13;2.27;;;9.70;99.90;;;;;;5075253;28;20427;-46
2024/02/21 09:40:32;;;;;;;2.43;1.73;;;9.70;99.90;;;;;;5073536;28;20436;-47
2024/02/21 09:43:06;;;;;;;3.53;2.10;;;9.70;99.90;;;;;;5052249;28;20442;-46
2024/02/21 09:45:39;;;;;;;4.40;2.07;;;9.70;99.90;;;;;;5071746;28;20455;-46
2024/02/21 09:50:50;;;;;;;2.07;1.80;;;9.70;99.90;;;;;;5014086;28;20674;-47
2024/02/21 09:53:20;;;;;;;3.03;2.00;;;9.70;99.90;;;;;;5010664;28;20481;-47
2024/02/21 09:55:53;;;;;;;4.00;1.90;;;9.70;99.90;;;;;;4990167;28;20454;-47
2024/02/21 09:58:27;;;;;;;2.20;1.60;;;9.70;99.90;;;;;;4995478;28;20488;-48
2024/02/21 10:01:04;;;;;;;3.60;1.67;;;9.70;99.90;;;;;;5122153;22;20560;-44
2024/02/21 10:03:47;;;;;;;2.90;1.80;;;9.70;99.90;;;;;;5014139;28;20471;-47
2024/02/21 10:06:18;;;;;;;2.30;1.87;;;9.70;99.90;;;;;;5100426;22;20927;-46
2024/02/21 10:08:53;;;;;;;1.77;1.30;;;9.70;99.90;;;;;;5045378;28;21076;-46
2024/02/21 10:11:24;;;;;;;2.87;1.90;;;9.70;99.90;;;;;;5042856;28;20539;-46
2024/02/21 10:14:06;;;;;;;4.07;1.93;;;9.70;99.90;;;;;;5045093;28;20533;-46
2024/02/21 10:16:38;;;;;;;4.13;1.70;;;9.70;99.90;;;;;;5106891;22;20832;-47
2024/02/21 10:22:07;;;;;;;3.03;1.80;;;9.70;99.90;;;;;;4873362;22;20533;-43
2024/02/21 10:27:14;;;;;;;2.60;1.70;;;9.70;99.90;;;;;;4883326;22;20850;-47
2024/02/21 10:29:58;;;;;;;3.20;1.97;;;9.70;99.90;;;;;;5120995;23;20493;-45
2024/02/21 10:32:30;;;;;;;2.50;1.83;;;9.70;99.90;;;;;;5064963;22;20490;-47
2024/02/21 10:35:05;;;;;;;1.90;1.47;;;9.70;99.90;;;;;;5061774;22;20487;-46
2024/02/21 10:37:50;;;;;;;3.93;1.80;;;9.70;99.90;;;;;;5052359;28;20826;-46
2024/02/21 10:40:34;;;;;;;3.57;1.83;;;9.70;99.90;;;;;;5114042;22;20488;-45
2024/02/21 10:43:06;;;;;;;2.37;1.90;;;9.70;99.90;;;;;;5052794;22;20506;-46
2024/02/21 10:45:37;;;;;;;3.00;1.87;;;9.70;99.90;;;;;;5035680;23;20511;-47
2024/02/21 10:48:12;;;;;;;1.70;1.53;;;9.70;99.90;;;;;;5010332;28;20468;-47
2024/02/21 10:51:01;;;;;;;3.30;1.77;;;9.70;99.90;;;;;;5101451;22;20549;-47
2024/02/21 10:53:53;;;;;;;3.80;1.70;;;9.70;99.90;;;;;;4975483;22;20471;-47
2024/02/21 10:59:09;;;;;;;2.87;1.80;;;9.70;99.90;;;;;;5060130;23;20516;-48
2024/02/21 11:01:41;;;;;;;3.20;1.87;;;9.70;99.90;;;;;;5011364;23;21077;-47
2024/02/21 11:04:12;;;;;;;4.00;2.03;;;9.70;99.90;;;;;;5039377;28;20457;-48
2024/02/21 11:06:43;;;;;;;2.47;1.50;;;9.70;99.90;;;;;;5034070;28;20424;-48
2024/02/21 11:09:15;;;;;;;2.00;1.60;;;9.70;99.90;;;;;;5023882;28;20544;-48
2024/02/21 11:11:47;;;;;;;2.70;1.63;;;9.70;99.90;;;;;;4990041;28;20955;-47
2024/02/21 11:14:22;;;;;;;2.30;1.67;;;9.70;99.90;;;;;;5001431;28;20534;-47
2024/02/21 11:17:01;;;;;;;3.73;2.03;;;9.70;99.90;;;;;;5068408;22;20488;31
2024/02/21 11:19:35;;;;;;;2.50;1.67;;;9.70;99.90;;;;;;4993731;22;20514;-49
2024/02/21 11:22:16;;;;;;;2.77;1.57;;;9.70;99.90;;;;;;4993229;28;20510;-43
2024/02/21 11:27:48;;;;;;;2.20;1.70;;;9.70;99.90;;;;;;4991371;28;20438;-46
2024/02/21 11:30:22;;;;;;;4.90;2.53;;;9.70;99.90;;;;;;4990639;28;20469;-46
2024/02/21 11:33:01;;;;;;;2.50;1.90;;;9.70;99.90;;;;;;5046223;22;20959;-46
2024/02/21 11:35:57;;;;;;;2.60;1.40;;;9.70;99.90;;;;;;4982759;23;20825;-43
2024/02/21 11:38:27;;;;;;;3.67;1.97;;;9.70;99.90;;;;;;4997085;28;20467;-47
2024/02/21 11:40:55;;;;;;;3.30;2.23;;;9.70;99.90;;;;;;5009052;28;20467;-47
2024/02/21 11:43:25;;;;;;;3.00;2.10;;;9.70;99.90;;;;;;4996805;28;20795;-47
2024/02/21 11:46:00;;;;;;;4.20;1.50;;;9.70;99.90;;;;;;5081702;23;20566;-48
2024/02/21 11:48:32;;;;;;;3.90;2.17;;;9.70;99.90;;;;;;5029904;28;20475;-49
2024/02/21 11:51:05;;;;;;;3.43;1.87;;;9.70;99.90;;;;;;5028699;28;20994;-48
2024/02/21 11:53:43;;;;;;;2.07;1.50;;;9.70;99.90;;;;;;5109870;23;20524;-46
2024/02/21 11:56:19;;;;;;;3.93;1.70;;;9.70;99.90;;;;;;5016688;23;20504;-46
2024/02/21 11:58:48;;;;;;;5.57;3.20;;;9.70;99.90;;;;;;5069632;23;21832;-46
2024/02/21 12:01:23;;;;;;;2.93;1.83;;;9.70;99.90;;;;;;5033780;28;20467;-46
2024/02/21 12:03:56;;;;;;;7.60;2.33;;;9.70;99.90;;;;;;5105981;22;20458;-47
2024/02/21 12:06:25;;;;;;;3.47;1.57;;;9.70;99.90;;;;;;5094389;23;20512;-47
2024/02/21 12:08:59;;;;;;;2.20;1.70;;;9.70;99.90;;;;;;5032036;28;20817;-46
2024/02/21 12:11:27;;;;;;;4.27;1.70;;;9.70;99.90;;;;;;5100998;23;21858;-46
2024/02/21 12:13:59;;;;;;;1.90;1.60;;;9.70;99.90;;;;;;5040669;23;20569;-47
2024/02/21 12:16:32;;;;;;;2.50;2.00;;;9.70;99.90;;;;;;5007680;28;20520;-47
2024/02/21 12:19:03;;;;;;;2.93;1.83;;;9.70;99.90;;;;;;5065849;22;20556;-45
2024/02/21 12:21:36;;;;;;;4.40;2.07;;;9.70;99.90;;;;;;5009456;28;20429;-47
2024/02/21 12:24:16;;;;;;;4.50;2.10;;;9.70;99.90;;;;;;5010972;28;20469;-50
2024/02/21 12:26:47;;;;;;;3.80;2.00;;;9.70;99.90;;;;;;5010936;28;20430;-48
2024/02/21 12:29:16;;;;;;;4.03;2.40;;;9.70;99.90;;;;;;5008213;28;20519;-48
2024/02/21 12:31:50;;;;;;;3.13;1.87;;;9.70;99.90;;;;;;5066109;23;20959;-46
2024/02/21 12:34:26;;;;;;;4.83;1.97;;;9.80;99.90;;;;;;5007596;28;20472;-47
2024/02/21 12:37:20;;;;;;;6.43;2.17;;;9.80;99.90;;;;;;5031465;28;20473;-46
2024/02/21 12:39:50;;;;;;;3.63;1.87;;;9.80;99.90;;;;;;5005849;28;20754;-46
2024/02/21 12:42:23;;;;;;;2.73;1.90;;;9.70;99.90;;;;;;5067198;22;20495;-46
2024/02/21 12:44:55;;;;;;;3.10;1.80;;;9.70;99.90;;;;;;5046248;23;20482;-46
2024/02/21 12:47:27;;;;;;;3.00;1.97;;;9.70;99.90;;;;;;5050573;28;20447;-46
2024/02/21 12:49:58;;;;;;;5.27;2.30;;;9.70;99.90;;;;;;5095269;23;20578;-45
2024/02/21 12:52:27;;;;;;;3.67;1.87;;;9.70;99.90;;;;;;5051544;28;20455;-47
2024/02/21 12:54:58;;;;;;;3.90;1.67;;;9.70;99.90;;;;;;5051268;28;20515;-46
2024/02/21 12:57:27;;;;;;;2.90;2.20;;;9.80;99.90;;;;;;5050289;28;20439;-47
2024/02/21 12:59:57;;;;;;;2.33;1.70;;;9.70;99.90;;;;;;5051711;28;20479;-46
2024/02/21 13:02:28;;;;;;;3.03;1.83;;;9.70;99.90;;;;;;5050121;28;20529;-46
2024/02/21 13:05:00;;;;;;;3.40;2.03;;;9.70;99.90;;;;;;5033164;28;20540;-47
2024/02/21 13:07:32;;;;;;;2.70;1.87;;;9.70;99.90;;;;;;5048974;28;20434;-46
2024/02/21 13:10:03;;;;;;;2.60;1.77;;;9.80;99.90;;;;;;5050640;28;20498;-47
2024/02/21 13:12:33;;;;;;;2.63;1.50;;;9.80;99.90;;;;;;5037553;28;21094;-47
2024/02/21 13:15:03;;;;;;;3.40;1.30;;;9.70;99.90;;;;;;5040982;28;20456;-47
2024/02/21 13:17:34;;;;;;;2.33;1.70;;;9.80;99.90;;;;;;5035175;28;20429;-46
2024/02/21 13:20:08;;;;;;;4.03;2.00;;;9.80;99.90;;;;;;5035261;28;20547;-46
2024/02/21 13:22:44;;;;;;;4.40;1.83;;;9.80;99.90;;;;;;5037670;28;20445;-46
2024/02/21 13:25:20;;;;;;;2.70;1.77;;;9.80;99.90;;;;;;5043085;28;20471;-46
2024/02/21 13:27:51;;;;;;;2.87;1.80;;;9.70;99.90;;;;;;5039727;28;20438;-46
2024/02/21 13:30:24;;;;;;;3.23;1.60;;;9.80;99.90;;;;;;5037754;28;20483;-47